Time,TemperatureF,DewpointF,PressureIn,WindDirection,WindDirectionDegrees,WindSpeedMPH,WindSpeedGustMPH,Humidity,HourlyPrecipIn,Conditions,Clouds,dailyrainin,SoftwareType,DateUTC
2013-10-17 00:01:00,73.2,67.7,29.86,NE,47,0.0,0.0,83,0.00,CLR,,0.00,WeatherDisplay:10.37,2013-10-17 04:01:00,
2013-10-17 00:02:00,73.2,67.7,29.86,NE,47,0.0,0.0,83,0.00,CLR,,0.00,WeatherDisplay:10.37,2013-10-17 04:02:00,
2013-10-17 00:07:00,73.2,67.7,29.86,NE,47,0.0,0.0,83,0.00,CLR,,0.00,WeatherDisplay:10.37,2013-10-17 04:07:00,
2013-10-17 00:12:00,73.2,67.7,29.86,NE,47,0.0,0.0,83,0.00,CLR,,0.00,WeatherDisplay:10.37,2013-10-17 04:12:00,
2013-10-17 00:17:00,73.1,67.6,29.86,NE,47,0.0,0.0,83,0.00,CLR,,0.00,WeatherDisplay:10.37,2013-10-17 04:17:00,
2013-10-17 00:22:00,73.0,67.5,29.86,NE,47,0.0,0.0,83,0.00,CLR,,0.00,WeatherDisplay:10.37,2013-10-17 04:22:00,
2013-10-17 00:27:00,72.9,67.4,29.86,NE,47,0.0,0.0,83,0.00,CLR,,0.00,WeatherDisplay:10.37,2013-10-17 04:27:00,
2013-10-17 00:32:00,72.9,67.4,29.86,NE,47,0.0,0.0,83,0.00,CLR,,0.00,WeatherDisplay:10.37,2013-10-17 04:32:00,
2013-10-17 00:37:00,72.9,67.4,29.86,NE,47,0.0,0.0,83,0.00,CLR,,0.00,WeatherDisplay:10.37,2013-10-17 04:37:00,
2013-10-17 00:42:00,73.0,67.5,29.86,NE,47,0.0,0.0,83,0.00,CLR,,0.00,WeatherDisplay:10.37,2013-10-17 04:42:00,
2013-10-17 00:47:00,73.1,67.6,29.85,NE,47,0.0,0.0,83,0.00,CLR,,0.00,WeatherDisplay:10.37,2013-10-17 04:47:00,
2013-10-17 00:52:00,73.1,67.6,29.85,NE,47,0.0,0.0,83,0.00,CLR,,0.00,WeatherDisplay:10.37,2013-10-17 04:52:00,
2013-10-17 00:57:00,73.2,67.7,29.85,NE,47,0.0,0.0,83,0.00,CLR,,0.00,WeatherDisplay:10.37,2013-10-17 04:57:00,
2013-10-17 01:02:00,73.3,67.8,29.85,NE,47,0.0,0.0,83,0.00,CLR,,0.00,WeatherDisplay:10.37,2013-10-17 05:02:00,
2013-10-17 01:07:00,73.2,67.7,29.85,NE,47,0.0,0.0,83,0.00,CLR,,0.00,WeatherDisplay:10.37,2013-10-17 05:07:00,
2013-10-17 01:12:00,73.3,67.8,29.85,NE,47,0.0,0.0,83,0.00,CLR,,0.00,WeatherDisplay:10.37,2013-10-17 05:12:00,
2013-10-17 01:17:00,73.1,67.6,29.85,NE,47,0.0,0.0,83,0.00,CLR,,0.00,WeatherDisplay:10.37,2013-10-17 05:17:00,
2013-10-17 01:22:00,73.1,67.6,29.85,NE,47,1.2,1.2,83,0.00,CLR,,0.00,WeatherDisplay:10.37,2013-10-17 05:22:00,
2013-10-17 01:27:00,73.0,67.5,29.85,NE,47,0.0,0.0,83,0.00,CLR,,0.00,WeatherDisplay:10.37,2013-10-17 05:27:00,
2013-10-17 01:32:00,73.1,67.6,29.85,NE,47,2.3,2.3,83,0.00,CLR,,0.00,WeatherDisplay:10.37,2013-10-17 05:32:00,
2013-10-17 01:37:00,73.5,68.0,29.85,NE,47,2.3,0.0,83,0.00,CLR,,0.00,WeatherDisplay:10.37,2013-10-17 05:37:00,
2013-10-17 01:42:00,73.6,68.1,29.85,NE,47,1.2,1.2,83,0.00,CLR,,0.00,WeatherDisplay:10.37,2013-10-17 05:42:00,
2013-10-17 01:47:00,73.6,68.1,29.85,NE,47,1.2,1.2,83,0.00,CLR,,0.00,WeatherDisplay:10.37,2013-10-17 05:47:00,
2013-10-17 01:52:00,73.6,68.1,29.85,NE,47,1.2,0.0,83,0.00,CLR,,0.00,WeatherDisplay:10.37,2013-10-17 05:52:00,
2013-10-17 01:57:00,73.6,68.1,29.85,NE,47,0.0,0.0,83,0.00,CLR,,0.00,WeatherDisplay:10.37,2013-10-17 05:57:00,
2013-10-17 02:02:00,73.5,68.0,29.84,NE,47,0.0,0.0,83,0.00,CLR,,0.00,WeatherDisplay:10.37,2013-10-17 06:02:00,
2013-10-17 02:07:00,73.5,68.0,29.84,NE,47,2.3,2.3,83,0.00,CLR,,0.00,WeatherDisplay:10.37,2013-10-17 06:07:00,
2013-10-17 02:12:00,73.4,67.9,29.84,NE,47,0.0,0.0,83,0.00,CLR,,0.00,WeatherDisplay:10.37,2013-10-17 06:12:00,
2013-10-17 02:17:00,73.5,68.0,29.84,NE,47,2.3,2.3,83,0.00,CLR,,0.00,WeatherDisplay:10.37,2013-10-17 06:17:00,
2013-10-17 02:22:00,73.5,68.0,29.84,NE,47,0.0,0.0,83,0.00,CLR,,0.00,WeatherDisplay:10.37,2013-10-17 06:22:00,
2013-10-17 02:27:00,73.5,68.0,29.84,NE,47,0.0,0.0,83,0.00,CLR,,0.00,WeatherDisplay:10.37,2013-10-17 06:27:00,
2013-10-17 02:32:00,73.4,67.9,29.84,NE,47,1.2,0.0,83,0.00,CLR,,0.00,WeatherDisplay:10.37,2013-10-17 06:32:00,
2013-10-17 02:37:00,73.2,67.7,29.84,NE,47,0.0,0.0,83,0.00,CLR,,0.00,WeatherDisplay:10.37,2013-10-17 06:37:00,
2013-10-17 02:42:00,73.1,67.6,29.84,NE,47,1.2,0.0,83,0.00,CLR,,0.00,WeatherDisplay:10.37,2013-10-17 06:42:00,
2013-10-17 02:47:00,73.2,67.7,29.84,NE,47,2.3,2.3,83,0.00,CLR,,0.00,WeatherDisplay:10.37,2013-10-17 06:47:00,
2013-10-17 02:52:00,73.2,67.7,29.84,NE,47,2.3,2.3,83,0.00,CLR,,0.00,WeatherDisplay:10.37,2013-10-17 06:52:00,
2013-10-17 02:57:00,73.1,67.6,29.84,NE,47,1.2,1.2,83,0.00,CLR,,0.00,WeatherDisplay:10.37,2013-10-17 06:57:00,
2013-10-17 03:02:00,73.1,67.6,29.84,NE,47,1.2,0.0,83,0.00,CLR,,0.00,WeatherDisplay:10.37,2013-10-17 07:02:00,
2013-10-17 03:07:00,73.0,67.9,29.84,NE,47,3.0,3.0,84,0.00,CLR,,0.00,WeatherDisplay:10.37,2013-10-17 07:07:00,
2013-10-17 03:12:00,73.0,67.9,29.84,NE,47,1.2,0.0,84,0.00,CLR,,0.00,WeatherDisplay:10.37,2013-10-17 07:12:00,
2013-10-17 03:17:00,73.1,68.0,29.83,NE,47,0.0,0.0,84,0.00,CLR,,0.00,WeatherDisplay:10.37,2013-10-17 07:17:00,
2013-10-17 03:22:00,73.1,68.0,29.83,NE,47,2.3,2.3,84,0.00,CLR,,0.00,WeatherDisplay:10.37,2013-10-17 07:22:00,
2013-10-17 03:27:00,73.1,68.0,29.83,NE,46,1.2,1.2,84,0.00,CLR,,0.00,WeatherDisplay:10.37,2013-10-17 07:27:00,
2013-10-17 03:32:00,73.0,67.9,29.83,NW,316,3.5,3.5,84,0.00,CLR,,0.00,WeatherDisplay:10.37,2013-10-17 07:32:00,
2013-10-17 03:37:00,73.0,67.9,29.83,NW,315,3.5,3.5,84,0.00,CLR,,0.00,WeatherDisplay:10.37,2013-10-17 07:37:00,
2013-10-17 03:42:00,73.0,67.9,29.83,NW,316,2.0,2.0,84,0.00,CLR,,0.00,WeatherDisplay:10.37,2013-10-17 07:42:00,
2013-10-17 03:47:00,72.9,67.8,29.83,NW,316,1.0,1.0,84,0.00,CLR,,0.00,WeatherDisplay:10.37,2013-10-17 07:47:00,
2013-10-17 03:52:00,72.9,67.8,29.83,NW,316,0.0,0.0,84,0.00,CLR,,0.00,WeatherDisplay:10.37,2013-10-17 07:52:00,
2013-10-17 03:57:00,72.9,67.8,29.83,NW,316,3.5,3.5,84,0.00,CLR,,0.00,WeatherDisplay:10.37,2013-10-17 07:57:00,
2013-10-17 04:02:00,72.8,67.7,29.83,NW,315,3.5,3.5,84,0.00,CLR,,0.00,WeatherDisplay:10.37,2013-10-17 08:02:00,
2013-10-17 04:07:00,72.6,67.5,29.83,NW,315,3.5,3.5,84,0.00,CLR,,0.00,WeatherDisplay:10.37,2013-10-17 08:07:00,
2013-10-17 04:08:00,72.6,67.5,29.83,NW,315,3.5,3.5,84,0.00,CLR,,0.00,WeatherDisplay:10.37,2013-10-17 08:08:00,
2013-10-17 04:13:00,72.5,67.4,29.83,NW,315,3.0,3.0,84,0.00,CLR,,0.00,WeatherDisplay:10.37,2013-10-17 08:13:00,
2013-10-17 04:18:00,72.6,67.5,29.83,NW,315,4.0,4.0,84,0.00,CLR,,0.00,WeatherDisplay:10.37,2013-10-17 08:18:00,
2013-10-17 04:23:00,72.6,67.5,29.83,NW,315,2.3,2.3,84,0.00,CLR,,0.00,WeatherDisplay:10.37,2013-10-17 08:23:00,
2013-10-17 04:28:00,72.5,67.4,29.83,NW,315,0.0,0.0,84,0.00,CLR,,0.00,WeatherDisplay:10.37,2013-10-17 08:28:00,
2013-10-17 04:33:00,72.4,67.3,29.83,NW,315,3.5,3.5,84,0.00,CLR,,0.00,WeatherDisplay:10.37,2013-10-17 08:33:00,
2013-10-17 04:38:00,72.4,67.3,29.83,NW,315,2.3,2.3,84,0.00,CLR,,0.00,WeatherDisplay:10.37,2013-10-17 08:38:00,
2013-10-17 04:43:00,72.4,67.3,29.83,NW,315,0.0,0.0,84,0.00,CLR,,0.00,WeatherDisplay:10.37,2013-10-17 08:43:00,
2013-10-17 04:48:00,72.3,67.2,29.83,NW,315,0.0,0.0,84,0.00,CLR,,0.00,WeatherDisplay:10.37,2013-10-17 08:48:00,
2013-10-17 04:53:00,72.2,67.1,29.83,NW,315,1.2,1.2,84,0.00,CLR,,0.00,WeatherDisplay:10.37,2013-10-17 08:53:00,
2013-10-17 04:58:00,72.2,67.1,29.83,NW,315,1.2,1.2,84,0.00,CLR,,0.00,WeatherDisplay:10.37,2013-10-17 08:58:00,
2013-10-17 05:03:00,72.2,67.1,29.84,NW,315,0.0,0.0,84,0.00,CLR,,0.00,WeatherDisplay:10.37,2013-10-17 09:03:00,
2013-10-17 05:08:00,72.2,67.1,29.84,NW,315,1.2,0.0,84,0.00,CLR,,0.00,WeatherDisplay:10.37,2013-10-17 09:08:00,
2013-10-17 05:13:00,72.1,67.0,29.84,NW,315,0.0,0.0,84,0.00,CLR,,0.00,WeatherDisplay:10.37,2013-10-17 09:13:00,
2013-10-17 05:18:00,72.0,66.9,29.84,NW,315,0.0,0.0,84,0.00,CLR,,0.00,WeatherDisplay:10.37,2013-10-17 09:18:00,
2013-10-17 05:23:00,72.0,66.9,29.84,NW,315,0.0,0.0,84,0.00,CLR,,0.00,WeatherDisplay:10.37,2013-10-17 09:23:00,
2013-10-17 05:28:00,71.9,66.8,29.84,NW,315,1.0,0.0,84,0.00,CLR,,0.00,WeatherDisplay:10.37,2013-10-17 09:28:00,
2013-10-17 05:33:00,71.9,66.8,29.84,NW,315,0.0,0.0,84,0.00,CLR,,0.00,WeatherDisplay:10.37,2013-10-17 09:33:00,
2013-10-17 05:38:00,71.8,66.7,29.84,NW,315,0.0,0.0,84,0.00,CLR,,0.00,WeatherDisplay:10.37,2013-10-17 09:38:00,
2013-10-17 05:43:00,71.7,66.6,29.84,NW,315,0.0,0.0,84,0.00,CLR,,0.00,WeatherDisplay:10.37,2013-10-17 09:43:00,
2013-10-17 05:48:00,71.7,66.6,29.84,NW,315,0.0,0.0,84,0.00,CLR,,0.00,WeatherDisplay:10.37,2013-10-17 09:48:00,
2013-10-17 05:53:00,71.7,66.6,29.84,NW,315,1.2,0.0,84,0.00,CLR,,0.00,WeatherDisplay:10.37,2013-10-17 09:53:00,
2013-10-17 05:58:00,71.7,66.6,29.84,NW,315,0.0,0.0,84,0.00,CLR,,0.00,WeatherDisplay:10.37,2013-10-17 09:58:00,
2013-10-17 06:03:00,71.7,66.6,29.84,NW,315,0.0,0.0,84,0.00,CLR,,0.00,WeatherDisplay:10.37,2013-10-17 10:03:00,
2013-10-17 06:08:00,71.7,66.6,29.84,NW,315,0.0,0.0,84,0.00,CLR,,0.00,WeatherDisplay:10.37,2013-10-17 10:08:00,
2013-10-17 06:13:00,71.7,66.6,29.84,NW,315,0.0,0.0,84,0.00,CLR,,0.00,WeatherDisplay:10.37,2013-10-17 10:13:00,
2013-10-17 06:18:00,71.7,66.9,29.85,NW,315,0.0,0.0,85,0.00,CLR,,0.00,WeatherDisplay:10.37,2013-10-17 10:18:00,
2013-10-17 06:23:00,71.8,67.0,29.85,NW,315,0.0,0.0,85,0.00,CLR,,0.00,WeatherDisplay:10.37,2013-10-17 10:23:00,
2013-10-17 06:28:00,71.9,66.8,29.85,NW,315,0.0,0.0,84,0.00,CLR,,0.00,WeatherDisplay:10.37,2013-10-17 10:28:00,
2013-10-17 06:33:00,71.9,66.8,29.85,NW,315,1.2,0.0,84,0.00,CLR,,0.00,WeatherDisplay:10.37,2013-10-17 10:33:00,
2013-10-17 06:38:00,72.0,66.9,29.85,NW,315,0.0,0.0,84,0.00,CLR,,0.00,WeatherDisplay:10.37,2013-10-17 10:38:00,
2013-10-17 06:43:00,72.0,66.9,29.85,NW,315,0.0,0.0,84,0.00,CLR,,0.00,WeatherDisplay:10.37,2013-10-17 10:43:00,
2013-10-17 06:48:00,72.1,67.0,29.86,NW,315,1.2,1.2,84,0.00,CLR,,0.00,WeatherDisplay:10.37,2013-10-17 10:48:00,
2013-10-17 06:53:00,72.1,67.0,29.86,NW,315,1.0,1.0,84,0.00,CLR,,0.00,WeatherDisplay:10.37,2013-10-17 10:53:00,
2013-10-17 06:58:00,72.1,67.0,29.86,NW,315,1.2,1.2,84,0.00,CLR,,0.00,WeatherDisplay:10.37,2013-10-17 10:58:00,
2013-10-17 07:03:00,72.1,67.0,29.86,NW,315,0.0,0.0,84,0.00,CLR,,0.00,WeatherDisplay:10.37,2013-10-17 11:03:00,
2013-10-17 07:08:00,72.0,66.9,29.86,NW,315,0.0,0.0,84,0.00,CLR,,0.00,WeatherDisplay:10.37,2013-10-17 11:08:00,
2013-10-17 07:13:00,72.0,66.9,29.86,NW,315,0.0,0.0,84,0.00,CLR,,0.00,WeatherDisplay:10.37,2013-10-17 11:13:00,
2013-10-17 07:18:00,72.0,66.9,29.86,NW,315,1.2,1.2,84,0.00,CLR,,0.00,WeatherDisplay:10.37,2013-10-17 11:18:00,
2013-10-17 07:23:00,72.0,66.9,29.86,NW,315,1.2,0.0,84,0.00,CLR,,0.00,WeatherDisplay:10.37,2013-10-17 11:23:00,
2013-10-17 07:28:00,72.1,67.3,29.86,NW,315,2.3,2.3,85,0.00,CLR,,0.00,WeatherDisplay:10.37,2013-10-17 11:28:00,
2013-10-17 07:33:00,72.0,66.9,29.86,NW,315,0.0,0.0,84,0.00,CLR,,0.00,WeatherDisplay:10.37,2013-10-17 11:33:00,
2013-10-17 07:38:00,72.0,67.2,29.86,NW,315,0.0,0.0,85,0.00,CLR,,0.00,WeatherDisplay:10.37,2013-10-17 11:38:00,
2013-10-17 07:43:00,71.9,67.1,29.86,NW,315,1.0,0.0,85,0.00,CLR,,0.00,WeatherDisplay:10.37,2013-10-17 11:43:00,
2013-10-17 07:48:00,71.9,67.1,29.86,NW,315,0.0,0.0,85,0.00,CLR,,0.00,WeatherDisplay:10.37,2013-10-17 11:48:00,
2013-10-17 07:53:00,71.9,67.1,29.86,NW,315,1.2,1.2,85,0.00,CLR,,0.00,WeatherDisplay:10.37,2013-10-17 11:53:00,
2013-10-17 07:58:00,72.0,67.2,29.86,NNE,19,2.3,2.3,85,0.00,CLR,,0.00,WeatherDisplay:10.37,2013-10-17 11:58:00,
2013-10-17 08:03:00,72.1,67.3,29.86,ENE,62,2.3,2.3,85,0.00,CLR,,0.00,WeatherDisplay:10.37,2013-10-17 12:03:00,
2013-10-17 08:08:00,72.2,67.4,29.86,ENE,62,2.3,2.3,85,0.00,CLR,,0.00,WeatherDisplay:10.37,2013-10-17 12:08:00,
2013-10-17 08:13:00,72.3,67.5,29.86,ENE,62,1.2,1.2,85,0.00,CLR,,0.00,WeatherDisplay:10.37,2013-10-17 12:13:00,
2013-10-17 08:18:00,72.5,67.7,29.87,ENE,62,2.3,2.3,85,0.00,CLR,,0.00,WeatherDisplay:10.37,2013-10-17 12:18:00,
2013-10-17 08:23:00,72.7,67.9,29.87,ENE,62,2.3,2.3,85,0.00,CLR,,0.00,WeatherDisplay:10.37,2013-10-17 12:23:00,
2013-10-17 08:28:00,72.8,68.0,29.87,ENE,62,1.2,1.2,85,0.00,CLR,,0.00,WeatherDisplay:10.37,2013-10-17 12:28:00,
2013-10-17 08:33:00,72.8,68.0,29.87,ENE,62,1.2,0.0,85,0.00,CLR,,0.00,WeatherDisplay:10.37,2013-10-17 12:33:00,
2013-10-17 08:38:00,72.6,67.5,29.87,ENE,62,1.2,1.2,84,0.00,CLR,,0.00,WeatherDisplay:10.37,2013-10-17 12:38:00,
2013-10-17 08:43:00,72.4,67.6,29.87,ENE,62,1.2,1.2,85,0.00,CLR,,0.00,WeatherDisplay:10.37,2013-10-17 12:43:00,
2013-10-17 08:48:00,72.4,67.6,29.87,NNW,344,3.5,3.5,85,0.00,CLR,,0.00,WeatherDisplay:10.37,2013-10-17 12:48:00,
2013-10-17 08:53:00,72.4,67.6,29.87,North,355,3.5,3.5,85,0.00,CLR,,0.00,WeatherDisplay:10.37,2013-10-17 12:53:00,
2013-10-17 08:58:00,72.4,67.6,29.87,NNW,329,3.5,3.5,85,0.00,CLR,,0.00,WeatherDisplay:10.37,2013-10-17 12:58:00,
2013-10-17 09:03:00,72.5,67.7,29.88,NNW,348,3.5,3.5,85,0.00,CLR,,0.00,WeatherDisplay:10.37,2013-10-17 13:03:00,
2013-10-17 09:08:00,72.7,67.9,29.88,NW,325,4.6,4.6,85,0.00,CLR,,0.00,WeatherDisplay:10.37,2013-10-17 13:08:00,
2013-10-17 09:13:00,72.9,68.1,29.88,NW,324,2.3,2.3,85,0.00,CLR,,0.00,WeatherDisplay:10.37,2013-10-17 13:13:00,
2013-10-17 09:18:00,73.0,68.2,29.89,NNW,327,3.5,3.5,85,0.00,CLR,,0.00,WeatherDisplay:10.37,2013-10-17 13:18:00,
2013-10-17 09:23:00,73.1,68.3,29.89,NW,316,3.5,3.5,85,0.00,CLR,,0.00,WeatherDisplay:10.37,2013-10-17 13:23:00,
2013-10-17 09:28:00,73.4,68.6,29.89,NW,317,2.3,2.3,85,0.00,CLR,,0.00,WeatherDisplay:10.37,2013-10-17 13:28:00,
2013-10-17 09:33:00,73.5,68.7,29.89,WNW,298,3.5,3.5,85,0.00,CLR,,0.00,WeatherDisplay:10.37,2013-10-17 13:33:00,
2013-10-17 09:38:00,73.5,68.7,29.89,NW,304,3.5,3.5,85,0.00,CLR,,0.00,WeatherDisplay:10.37,2013-10-17 13:38:00,
2013-10-17 09:43:00,73.7,68.9,29.89,NNW,336,3.5,3.5,85,0.00,CLR,,0.00,WeatherDisplay:10.37,2013-10-17 13:43:00,
2013-10-17 09:48:00,73.9,69.1,29.89,NW,317,2.3,2.3,85,0.00,CLR,,0.00,WeatherDisplay:10.37,2013-10-17 13:48:00,
2013-10-17 09:51:00,74.0,69.2,29.89,NW,320,5.8,5.8,85,0.00,CLR,,0.00,WeatherDisplay:10.37,2013-10-17 13:51:00,
2013-10-17 09:53:00,74.0,69.2,29.89,NW,320,5.8,5.8,85,0.00,CLR,,0.00,WeatherDisplay:10.37,2013-10-17 13:53:00,
2013-10-17 09:58:00,74.0,69.2,29.89,NW,320,5.8,5.8,85,0.00,CLR,,0.00,WeatherDisplay:10.37,2013-10-17 13:58:00,
2013-10-17 10:04:00,74.0,69.2,29.89,NW,309,5.8,5.8,85,0.00,CLR,,0.00,WeatherDisplay:10.37,2013-10-17 14:04:00,
2013-10-17 10:09:00,74.7,69.5,29.90,NW,312,2.3,2.3,84,0.00,CLR,,0.00,WeatherDisplay:10.37,2013-10-17 14:09:00,
2013-10-17 10:14:00,74.9,69.4,29.90,NW,313,2.3,2.3,83,0.00,CLR,,0.00,WeatherDisplay:10.37,2013-10-17 14:14:00,
2013-10-17 10:19:00,75.5,70.0,29.90,NW,313,2.3,2.3,83,0.00,CLR,,0.00,WeatherDisplay:10.37,2013-10-17 14:19:00,
2013-10-17 10:24:00,75.6,70.1,29.90,NW,312,2.3,2.3,83,0.00,CLR,,0.00,WeatherDisplay:10.37,2013-10-17 14:24:00,
2013-10-17 10:29:00,76.1,70.6,29.90,NW,311,3.0,3.0,83,0.00,CLR,,0.00,WeatherDisplay:10.37,2013-10-17 14:29:00,
2013-10-17 10:34:00,76.8,70.9,29.90,NW,313,3.5,3.5,82,0.00,CLR,,0.00,WeatherDisplay:10.37,2013-10-17 14:34:00,
2013-10-17 10:39:00,77.4,71.1,29.90,WNW,287,3.5,3.5,81,0.00,CLR,,0.00,WeatherDisplay:10.37,2013-10-17 14:39:00,
2013-10-17 10:44:00,77.9,70.9,29.90,WSW,244,4.6,4.6,79,0.00,CLR,,0.00,WeatherDisplay:10.37,2013-10-17 14:44:00,
2013-10-17 10:49:00,78.5,70.7,29.90,WSW,242,2.3,0.0,77,0.00,CLR,,0.00,WeatherDisplay:10.37,2013-10-17 14:49:00,
2013-10-17 10:54:00,79.1,71.3,29.90,WNW,286,3.5,3.5,77,0.00,CLR,,0.00,WeatherDisplay:10.37,2013-10-17 14:54:00,
2013-10-17 10:59:00,79.6,71.4,29.90,WNW,299,1.2,1.2,76,0.00,CLR,,0.00,WeatherDisplay:10.37,2013-10-17 14:59:00,
2013-10-17 11:04:00,80.0,71.4,29.90,West,279,3.5,3.5,75,0.00,CLR,,0.00,WeatherDisplay:10.37,2013-10-17 15:04:00,
2013-10-17 11:09:00,80.3,70.9,29.90,West,281,3.5,3.5,73,0.00,CLR,,0.00,WeatherDisplay:10.37,2013-10-17 15:09:00,
2013-10-17 11:14:00,80.5,71.0,29.90,NW,305,1.2,1.2,73,0.00,CLR,,0.00,WeatherDisplay:10.37,2013-10-17 15:14:00,
2013-10-17 11:19:00,80.8,70.9,29.90,NW,306,4.6,4.6,72,0.00,CLR,,0.00,WeatherDisplay:10.37,2013-10-17 15:19:00,
2013-10-17 11:24:00,81.1,71.2,29.90,NW,308,4.6,4.6,72,0.00,CLR,,0.00,WeatherDisplay:10.37,2013-10-17 15:24:00,
2013-10-17 11:29:00,81.3,70.6,29.90,NW,309,3.5,3.5,70,0.00,CLR,,0.00,WeatherDisplay:10.37,2013-10-17 15:29:00,
2013-10-17 11:34:00,81.6,71.3,29.90,NW,309,3.5,3.5,71,0.00,CLR,,0.00,WeatherDisplay:10.37,2013-10-17 15:34:00,
2013-10-17 11:39:00,81.8,71.1,29.90,NW,311,3.0,3.0,70,0.00,CLR,,0.00,WeatherDisplay:10.37,2013-10-17 15:39:00,
2013-10-17 11:44:00,82.4,71.2,29.90,NW,313,3.5,3.5,69,0.00,CLR,,0.00,WeatherDisplay:10.37,2013-10-17 15:44:00,
2013-10-17 11:49:00,82.9,71.3,29.90,NW,313,4.0,4.0,68,0.00,CLR,,0.00,WeatherDisplay:10.37,2013-10-17 15:49:00,
2013-10-17 11:54:00,82.6,71.0,29.90,NW,307,3.5,3.5,68,0.00,CLR,,0.00,WeatherDisplay:10.37,2013-10-17 15:54:00,
2013-10-17 11:59:00,83.0,71.3,29.89,NW,308,4.0,4.0,68,0.00,CLR,,0.00,WeatherDisplay:10.37,2013-10-17 15:59:00,
2013-10-17 12:04:00,83.5,70.9,29.89,NW,308,3.5,3.5,66,0.00,CLR,,0.00,WeatherDisplay:10.37,2013-10-17 16:04:00,
2013-10-17 12:09:00,83.4,70.8,29.89,NW,308,3.5,3.5,66,0.00,CLR,,0.00,WeatherDisplay:10.37,2013-10-17 16:09:00,
2013-10-17 12:14:00,83.7,71.6,29.89,NW,308,2.3,2.3,67,0.00,CLR,,0.00,WeatherDisplay:10.37,2013-10-17 16:14:00,
2013-10-17 12:19:00,84.1,71.1,29.89,NW,309,4.6,4.6,65,0.00,CLR,,0.00,WeatherDisplay:10.37,2013-10-17 16:19:00,
2013-10-17 12:24:00,84.4,71.3,29.89,NNW,327,3.5,3.5,65,0.00,CLR,,0.00,WeatherDisplay:10.37,2013-10-17 16:24:00,
2013-10-17 12:29:00,84.5,71.4,29.89,NW,325,3.5,3.5,65,0.00,CLR,,0.00,WeatherDisplay:10.37,2013-10-17 16:29:00,
2013-10-17 12:34:00,84.3,71.2,29.89,NW,325,3.5,3.5,65,0.00,CLR,,0.00,WeatherDisplay:10.37,2013-10-17 16:34:00,
2013-10-17 12:39:00,84.4,70.9,29.89,NW,325,1.2,1.2,64,0.00,CLR,,0.00,WeatherDisplay:10.37,2013-10-17 16:39:00,
2013-10-17 12:44:00,84.5,71.4,29.88,NW,325,1.2,1.6,65,0.00,CLR,,0.00,WeatherDisplay:10.37,2013-10-17 16:44:00,
2013-10-17 12:49:00,84.6,70.6,29.88,NW,325,3.5,3.5,63,0.00,CLR,,0.00,WeatherDisplay:10.37,2013-10-17 16:49:00,
2013-10-17 12:54:00,85.4,70.9,29.88,NW,325,3.0,3.0,62,0.00,CLR,,0.00,WeatherDisplay:10.37,2013-10-17 16:54:00,
2013-10-17 12:59:00,84.9,71.4,29.87,NW,325,1.2,0.0,64,0.00,CLR,,0.00,WeatherDisplay:10.37,2013-10-17 16:59:00,
2013-10-17 13:04:00,84.7,70.7,29.87,NW,325,2.3,2.3,63,0.00,CLR,,0.00,WeatherDisplay:10.37,2013-10-17 17:04:00,
2013-10-17 13:09:00,85.0,70.5,29.87,NNW,327,1.2,1.2,62,0.00,CLR,,0.00,WeatherDisplay:10.37,2013-10-17 17:09:00,
2013-10-17 13:14:00,84.7,72.1,29.87,North,5,2.3,2.3,66,0.00,CLR,,0.00,WeatherDisplay:10.37,2013-10-17 17:14:00,
2013-10-17 13:19:00,85.5,71.9,29.87,NE,47,9.2,9.2,64,0.00,CLR,,0.00,WeatherDisplay:10.37,2013-10-17 17:19:00,
2013-10-17 13:24:00,86.2,72.6,29.87,NE,49,5.8,5.8,64,0.00,CLR,,0.00,WeatherDisplay:10.37,2013-10-17 17:24:00,
2013-10-17 13:29:00,85.9,71.8,29.86,NE,40,5.8,5.8,63,0.00,CLR,,0.00,WeatherDisplay:10.37,2013-10-17 17:29:00,
2013-10-17 13:34:00,85.7,72.1,29.86,NE,44,6.0,6.0,64,0.00,CLR,,0.00,WeatherDisplay:10.37,2013-10-17 17:34:00,
2013-10-17 13:39:00,85.8,72.2,29.86,NNE,18,10.4,10.4,64,0.00,CLR,,0.00,WeatherDisplay:10.37,2013-10-17 17:39:00,
2013-10-17 13:44:00,86.1,71.6,29.86,ENE,58,6.9,6.9,62,0.00,CLR,,0.00,WeatherDisplay:10.37,2013-10-17 17:44:00,
2013-10-17 13:49:00,85.8,71.7,29.86,ENE,76,4.0,4.0,63,0.00,CLR,,0.00,WeatherDisplay:10.37,2013-10-17 17:49:00,
2013-10-17 13:54:00,85.4,71.8,29.86,ENE,78,6.9,6.9,64,0.00,CLR,,0.00,WeatherDisplay:10.37,2013-10-17 17:54:00,
2013-10-17 13:59:00,85.8,71.7,29.85,ESE,102,5.8,5.8,63,0.00,CLR,,0.00,WeatherDisplay:10.37,2013-10-17 17:59:00,
2013-10-17 14:04:00,85.6,71.6,29.85,ENE,77,6.0,6.0,63,0.00,CLR,,0.00,WeatherDisplay:10.37,2013-10-17 18:04:00,
2013-10-17 14:09:00,85.8,72.2,29.85,ENE,71,5.8,5.8,64,0.00,CLR,,0.00,WeatherDisplay:10.37,2013-10-17 18:09:00,
2013-10-17 14:14:00,85.8,72.2,29.84,NE,41,3.5,4.1,64,0.00,CLR,,0.00,WeatherDisplay:10.37,2013-10-17 18:14:00,
2013-10-17 14:19:00,85.8,71.7,29.84,East,88,4.0,4.0,63,0.00,CLR,,0.00,WeatherDisplay:10.37,2013-10-17 18:19:00,
2013-10-17 14:24:00,85.5,71.5,29.84,NE,51,5.0,5.0,63,0.00,CLR,,0.00,WeatherDisplay:10.37,2013-10-17 18:24:00,
2013-10-17 14:29:00,85.9,70.9,29.84,East,82,5.8,5.8,61,0.00,CLR,,0.00,WeatherDisplay:10.37,2013-10-17 18:29:00,
2013-10-17 14:34:00,86.0,72.4,29.84,NE,39,4.6,4.6,64,0.00,CLR,,0.00,WeatherDisplay:10.37,2013-10-17 18:34:00,
2013-10-17 14:39:00,87.1,71.5,29.84,East,81,5.8,5.8,60,0.00,CLR,,0.00,WeatherDisplay:10.37,2013-10-17 18:39:00,
2013-10-17 14:44:00,85.9,70.9,29.83,East,80,4.6,4.6,61,0.00,CLR,,0.00,WeatherDisplay:10.37,2013-10-17 18:44:00,
2013-10-17 14:49:00,85.6,72.0,29.83,East,95,4.6,4.6,64,0.00,CLR,,0.00,WeatherDisplay:10.37,2013-10-17 18:49:00,
2013-10-17 14:54:00,85.8,72.2,29.83,NE,34,9.2,9.2,64,0.00,CLR,,0.00,WeatherDisplay:10.37,2013-10-17 18:54:00,
2013-10-17 14:59:00,86.3,72.7,29.83,NE,45,5.8,5.8,64,0.00,CLR,,0.00,WeatherDisplay:10.37,2013-10-17 18:59:00,
2013-10-17 15:04:00,85.8,73.1,29.83,NE,53,5.8,5.8,66,0.00,FEW,,0.00,WeatherDisplay:10.37,2013-10-17 19:04:00,
2013-10-17 15:09:00,86.1,73.0,29.83,East,80,7.0,7.0,65,0.00,FEW,,0.00,WeatherDisplay:10.37,2013-10-17 19:09:00,
2013-10-17 15:14:00,84.8,72.6,29.83,ENE,61,10.4,10.4,67,0.00,FEW,,0.00,WeatherDisplay:10.37,2013-10-17 19:14:00,
2013-10-17 15:19:00,84.8,73.5,29.83,ENE,66,9.2,9.2,69,0.00,FEW,,0.00,WeatherDisplay:10.37,2013-10-17 19:19:00,
2013-10-17 15:24:00,84.5,73.6,29.83,ENE,69,9.2,9.2,70,0.00,FEW,,0.00,WeatherDisplay:10.37,2013-10-17 19:24:00,
2013-10-17 15:30:00,84.3,73.4,29.83,ENE,73,6.0,12.0,70,0.00,FEW,,0.00,WeatherDisplay:10.37,2013-10-17 19:30:00,
2013-10-17 15:33:00,84.2,73.8,29.83,NE,46,9.2,9.2,71,0.00,FEW,,0.00,WeatherDisplay:10.37,2013-10-17 19:33:00,
2013-10-17 15:38:00,84.0,73.2,29.83,NE,55,11.5,11.5,70,0.00,FEW,,0.00,WeatherDisplay:10.37,2013-10-17 19:38:00,
2013-10-17 15:43:00,83.8,73.8,29.83,ENE,72,10.4,10.4,72,0.00,FEW,,0.00,WeatherDisplay:10.37,2013-10-17 19:43:00,
2013-10-17 15:48:00,83.9,73.9,29.82,NNE,24,10.4,10.4,72,0.00,FEW,,0.00,WeatherDisplay:10.37,2013-10-17 19:48:00,
2013-10-17 15:53:00,84.0,74.0,29.82,ENE,70,10.4,10.4,72,0.00,FEW,,0.00,WeatherDisplay:10.37,2013-10-17 19:53:00,
2013-10-17 15:58:00,83.8,73.8,29.82,ENE,74,9.2,9.2,72,0.00,FEW,,0.00,WeatherDisplay:10.37,2013-10-17 19:58:00,
2013-10-17 16:03:00,83.6,74.0,29.82,NE,45,11.5,11.5,73,0.00,CLR,,0.00,WeatherDisplay:10.37,2013-10-17 20:03:00,
2013-10-17 16:08:00,83.5,74.3,29.82,ENE,76,9.2,9.2,74,0.00,CLR,,0.00,WeatherDisplay:10.37,2013-10-17 20:08:00,
2013-10-17 16:13:00,83.3,74.1,29.82,ENE,70,7.0,7.0,74,0.00,CLR,,0.00,WeatherDisplay:10.37,2013-10-17 20:13:00,
2013-10-17 16:18:00,83.2,74.4,29.82,NE,39,9.2,9.2,75,0.00,CLR,,0.00,WeatherDisplay:10.37,2013-10-17 20:18:00,
2013-10-17 16:23:00,83.1,74.4,29.82,East,84,10.4,10.4,75,0.00,CLR,,0.00,WeatherDisplay:10.37,2013-10-17 20:23:00,
2013-10-17 16:28:00,82.9,74.2,29.82,East,80,7.0,7.0,75,0.00,CLR,,0.00,WeatherDisplay:10.37,2013-10-17 20:28:00,
2013-10-17 16:33:00,82.8,74.1,29.82,ENE,76,6.9,6.9,75,0.00,CLR,,0.00,WeatherDisplay:10.37,2013-10-17 20:33:00,
2013-10-17 16:38:00,82.6,73.9,29.82,ENE,78,4.6,4.6,75,0.00,CLR,,0.00,WeatherDisplay:10.37,2013-10-17 20:38:00,
2013-10-17 16:43:00,82.2,73.5,29.82,ENE,69,6.9,6.9,75,0.00,CLR,,0.00,WeatherDisplay:10.37,2013-10-17 20:43:00,
2013-10-17 16:48:00,82.3,74.0,29.82,ENE,69,5.8,5.8,76,0.00,CLR,,0.00,WeatherDisplay:10.37,2013-10-17 20:48:00,
2013-10-17 16:53:00,82.3,73.6,29.82,ENE,73,8.1,8.1,75,0.00,CLR,,0.00,WeatherDisplay:10.37,2013-10-17 20:53:00,
2013-10-17 16:58:00,82.2,73.5,29.82,ENE,78,7.0,7.0,75,0.00,CLR,,0.00,WeatherDisplay:10.37,2013-10-17 20:58:00,
2013-10-17 17:03:00,82.1,73.8,29.82,ENE,65,5.8,5.8,76,0.00,CLR,,0.00,WeatherDisplay:10.37,2013-10-17 21:03:00,
2013-10-17 17:08:00,82.1,73.8,29.82,ENE,57,10.4,10.4,76,0.00,CLR,,0.00,WeatherDisplay:10.37,2013-10-17 21:08:00,
2013-10-17 17:13:00,81.9,73.2,29.82,ENE,65,6.9,6.9,75,0.00,CLR,,0.00,WeatherDisplay:10.37,2013-10-17 21:13:00,
2013-10-17 17:18:00,81.7,73.0,29.82,East,90,8.1,8.1,75,0.00,CLR,,0.00,WeatherDisplay:10.37,2013-10-17 21:18:00,
2013-10-17 17:23:00,81.5,73.2,29.82,ENE,69,10.4,10.4,76,0.00,CLR,,0.00,WeatherDisplay:10.37,2013-10-17 21:23:00,
2013-10-17 17:28:00,81.2,72.9,29.82,East,79,6.0,6.0,76,0.00,CLR,,0.00,WeatherDisplay:10.37,2013-10-17 21:28:00,
2013-10-17 17:33:00,81.1,72.8,29.82,ENE,72,6.9,6.9,76,0.00,CLR,,0.00,WeatherDisplay:10.37,2013-10-17 21:33:00,
2013-10-17 17:38:00,81.1,72.8,29.82,NE,56,9.2,9.2,76,0.00,CLR,,0.00,WeatherDisplay:10.37,2013-10-17 21:38:00,
2013-10-17 17:43:00,81.0,72.7,29.82,NE,47,4.6,4.6,76,0.00,CLR,,0.00,WeatherDisplay:10.37,2013-10-17 21:43:00,
2013-10-17 17:48:00,80.9,72.6,29.82,ENE,58,5.8,5.8,76,0.00,CLR,,0.00,WeatherDisplay:10.37,2013-10-17 21:48:00,
2013-10-17 17:53:00,80.7,72.4,29.82,East,80,6.0,6.0,76,0.00,CLR,,0.00,WeatherDisplay:10.37,2013-10-17 21:53:00,
2013-10-17 17:58:00,80.5,72.2,29.82,East,80,6.9,6.9,76,0.00,CLR,,0.00,WeatherDisplay:10.37,2013-10-17 21:58:00,
2013-10-17 18:03:00,80.4,72.1,29.82,East,84,6.9,6.9,76,0.00,CLR,,0.00,WeatherDisplay:10.37,2013-10-17 22:03:00,
2013-10-17 18:08:00,80.3,72.0,29.82,East,88,4.6,4.6,76,0.00,CLR,,0.00,WeatherDisplay:10.37,2013-10-17 22:08:00,
2013-10-17 18:13:00,80.2,71.9,29.82,ENE,69,6.9,6.9,76,0.00,CLR,,0.00,WeatherDisplay:10.37,2013-10-17 22:13:00,
2013-10-17 18:18:00,80.0,71.8,29.83,East,85,9.2,9.2,76,0.00,CLR,,0.00,WeatherDisplay:10.37,2013-10-17 22:18:00,
2013-10-17 18:23:00,80.0,71.8,29.83,East,100,6.9,6.9,76,0.00,CLR,,0.00,WeatherDisplay:10.37,2013-10-17 22:23:00,
2013-10-17 18:28:00,79.8,71.9,29.83,ENE,77,5.8,5.8,77,0.00,CLR,,0.00,WeatherDisplay:10.37,2013-10-17 22:28:00,
2013-10-17 18:33:00,79.7,71.8,29.83,East,93,4.6,4.6,77,0.00,CLR,,0.00,WeatherDisplay:10.37,2013-10-17 22:33:00,
2013-10-17 18:38:00,79.5,71.7,29.83,East,93,4.0,4.0,77,0.00,CLR,,0.00,WeatherDisplay:10.37,2013-10-17 22:38:00,
2013-10-17 18:43:00,79.3,71.5,29.83,East,86,4.6,4.6,77,0.00,CLR,,0.00,WeatherDisplay:10.37,2013-10-17 22:43:00,
2013-10-17 18:48:00,79.1,71.3,29.83,East,97,4.6,4.6,77,0.00,CLR,,0.00,WeatherDisplay:10.37,2013-10-17 22:48:00,
2013-10-17 18:53:00,79.0,71.6,29.83,East,79,5.8,5.8,78,0.00,CLR,,0.00,WeatherDisplay:10.37,2013-10-17 22:53:00,
2013-10-17 18:58:00,78.9,71.5,29.83,East,83,6.9,6.9,78,0.00,CLR,,0.00,WeatherDisplay:10.37,2013-10-17 22:58:00,
2013-10-17 19:03:00,78.9,71.5,29.83,East,84,9.2,9.2,78,0.00,CLR,,0.00,WeatherDisplay:10.37,2013-10-17 23:03:00,
2013-10-17 19:08:00,78.8,71.4,29.83,ENE,75,5.8,5.8,78,0.00,CLR,,0.00,WeatherDisplay:10.37,2013-10-17 23:08:00,
2013-10-17 19:13:00,78.8,71.4,29.83,East,97,5.8,5.8,78,0.00,CLR,,0.00,WeatherDisplay:10.37,2013-10-17 23:13:00,
2013-10-17 19:18:00,78.7,71.3,29.83,East,89,5.8,5.8,78,0.00,CLR,,0.00,WeatherDisplay:10.37,2013-10-17 23:18:00,
2013-10-17 19:23:00,78.7,71.6,29.83,East,80,5.8,5.8,79,0.00,CLR,,0.00,WeatherDisplay:10.37,2013-10-17 23:23:00,
2013-10-17 19:28:00,78.6,71.5,29.83,East,85,5.8,5.8,79,0.00,CLR,,0.00,WeatherDisplay:10.37,2013-10-17 23:28:00,
2013-10-17 19:33:00,78.5,71.4,29.84,East,88,3.5,3.5,79,0.00,CLR,,0.00,WeatherDisplay:10.37,2013-10-17 23:33:00,
2013-10-17 19:38:00,78.5,71.4,29.84,East,86,3.5,3.5,79,0.00,CLR,,0.00,WeatherDisplay:10.37,2013-10-17 23:38:00,
2013-10-17 19:43:00,78.4,71.3,29.84,East,90,4.6,4.6,79,0.00,CLR,,0.00,WeatherDisplay:10.37,2013-10-17 23:43:00,
2013-10-17 19:48:00,78.3,71.2,29.84,East,90,3.5,3.5,79,0.00,CLR,,0.00,WeatherDisplay:10.37,2013-10-17 23:48:00,
2013-10-17 19:53:00,78.2,71.2,29.84,East,90,3.5,3.5,79,0.00,CLR,,0.00,WeatherDisplay:10.37,2013-10-17 23:53:00,
2013-10-17 19:58:00,78.1,71.1,29.84,East,93,4.0,4.0,79,0.00,CLR,,0.00,WeatherDisplay:10.37,2013-10-17 23:58:00,
2013-10-17 20:03:00,78.0,71.0,29.84,East,89,4.6,4.6,79,0.00,CLR,,0.00,WeatherDisplay:10.37,2013-10-18 00:03:00,
2013-10-17 20:08:00,78.0,71.0,29.84,East,88,5.8,5.8,79,0.00,CLR,,0.00,WeatherDisplay:10.37,2013-10-18 00:08:00,
2013-10-17 20:13:00,78.0,71.0,29.84,East,92,3.5,3.5,79,0.00,CLR,,0.00,WeatherDisplay:10.37,2013-10-18 00:13:00,
2013-10-17 20:18:00,78.0,71.0,29.84,East,94,3.5,3.5,79,0.00,CLR,,0.00,WeatherDisplay:10.37,2013-10-18 00:18:00,
2013-10-17 20:23:00,77.9,70.9,29.84,East,82,3.5,3.5,79,0.00,CLR,,0.00,WeatherDisplay:10.37,2013-10-18 00:23:00,
2013-10-17 20:28:00,78.0,71.0,29.84,East,94,3.5,3.5,79,0.00,CLR,,0.00,WeatherDisplay:10.37,2013-10-18 00:28:00,
2013-10-17 20:33:00,78.0,71.0,29.84,East,94,3.5,3.5,79,0.00,CLR,,0.00,WeatherDisplay:10.37,2013-10-18 00:33:00,
2013-10-17 20:38:00,78.0,71.0,29.84,East,90,3.5,3.5,79,0.00,CLR,,0.00,WeatherDisplay:10.37,2013-10-18 00:38:00,
2013-10-17 20:43:00,78.0,71.0,29.84,East,88,5.0,5.0,79,0.00,CLR,,0.00,WeatherDisplay:10.37,2013-10-18 00:43:00,
2013-10-17 20:48:00,77.9,70.9,29.84,East,89,2.3,2.3,79,0.00,CLR,,0.00,WeatherDisplay:10.37,2013-10-18 00:48:00,
2013-10-17 20:53:00,77.9,70.9,29.84,East,88,4.6,4.6,79,0.00,CLR,,0.00,WeatherDisplay:10.37,2013-10-18 00:53:00,
2013-10-17 20:58:00,77.9,70.9,29.84,East,90,3.5,3.5,79,0.00,CLR,,0.00,WeatherDisplay:10.37,2013-10-18 00:58:00,
2013-10-17 21:03:00,77.8,70.8,29.85,East,92,3.5,3.5,79,0.00,CLR,,0.00,WeatherDisplay:10.37,2013-10-18 01:03:00,
2013-10-17 21:08:00,77.8,70.8,29.85,East,95,2.3,2.3,79,0.00,CLR,,0.00,WeatherDisplay:10.37,2013-10-18 01:08:00,
2013-10-17 21:13:00,77.7,70.3,29.85,East,91,5.0,5.0,78,0.00,CLR,,0.00,WeatherDisplay:10.37,2013-10-18 01:13:00,
2013-10-17 21:18:00,77.7,70.3,29.85,East,96,3.5,3.5,78,0.00,CLR,,0.00,WeatherDisplay:10.37,2013-10-18 01:18:00,
2013-10-17 21:23:00,77.8,70.4,29.85,East,94,3.5,3.5,78,0.00,CLR,,0.00,WeatherDisplay:10.37,2013-10-18 01:23:00,
2013-10-17 21:28:00,77.9,70.5,29.85,East,84,1.2,0.0,78,0.00,CLR,,0.00,WeatherDisplay:10.37,2013-10-18 01:28:00,
2013-10-17 21:33:00,77.9,70.5,29.86,East,85,2.3,2.3,78,0.00,CLR,,0.00,WeatherDisplay:10.37,2013-10-18 01:33:00,
2013-10-17 21:38:00,77.8,70.4,29.86,East,85,3.5,3.5,78,0.00,CLR,,0.00,WeatherDisplay:10.37,2013-10-18 01:38:00,
2013-10-17 21:43:00,77.8,70.4,29.86,East,89,2.3,2.3,78,0.00,CLR,,0.00,WeatherDisplay:10.37,2013-10-18 01:43:00,
2013-10-17 21:48:00,77.6,70.2,29.86,East,94,5.0,5.0,78,0.00,CLR,,0.00,WeatherDisplay:10.37,2013-10-18 01:48:00,
2013-10-17 21:53:00,77.6,70.2,29.86,East,100,3.5,3.5,78,0.00,CLR,,0.00,WeatherDisplay:10.37,2013-10-18 01:53:00,
2013-10-17 21:58:00,77.7,70.3,29.86,East,100,1.2,1.2,78,0.00,CLR,,0.00,WeatherDisplay:10.37,2013-10-18 01:58:00,
2013-10-17 22:03:00,77.8,70.4,29.86,East,98,2.3,2.3,78,0.00,CLR,,0.00,WeatherDisplay:10.37,2013-10-18 02:03:00,
2013-10-17 22:08:00,77.8,70.4,29.86,East,100,3.5,3.5,78,0.00,CLR,,0.00,WeatherDisplay:10.37,2013-10-18 02:08:00,
2013-10-17 22:13:00,77.8,70.4,29.86,East,96,2.3,2.3,78,0.00,CLR,,0.00,WeatherDisplay:10.37,2013-10-18 02:13:00,
2013-10-17 22:18:00,77.8,70.4,29.86,ESE,115,3.5,3.5,78,0.00,CLR,,0.00,WeatherDisplay:10.37,2013-10-18 02:18:00,
2013-10-17 22:23:00,77.8,70.4,29.86,ESE,113,2.3,2.3,78,0.00,CLR,,0.00,WeatherDisplay:10.37,2013-10-18 02:23:00,
2013-10-17 22:28:00,77.7,70.3,29.86,ESE,110,3.5,3.5,78,0.00,CLR,,0.00,WeatherDisplay:10.37,2013-10-18 02:28:00,
2013-10-17 22:33:00,77.7,70.3,29.86,ESE,108,2.3,2.3,78,0.00,CLR,,0.00,WeatherDisplay:10.37,2013-10-18 02:33:00,
2013-10-17 22:38:00,77.7,70.3,29.86,ESE,108,1.2,0.0,78,0.00,CLR,,0.00,WeatherDisplay:10.37,2013-10-18 02:38:00,
2013-10-17 22:43:00,77.7,70.3,29.86,ESE,108,0.0,0.0,78,0.00,CLR,,0.00,WeatherDisplay:10.37,2013-10-18 02:43:00,
2013-10-17 22:48:00,77.7,70.3,29.86,ESE,106,3.5,3.5,78,0.00,CLR,,0.00,WeatherDisplay:10.37,2013-10-18 02:48:00,
2013-10-17 22:53:00,77.6,70.2,29.86,East,100,0.0,0.0,78,0.00,CLR,,0.00,WeatherDisplay:10.37,2013-10-18 02:53:00,
2013-10-17 22:58:00,77.6,69.8,29.86,ESE,102,2.3,2.3,77,0.00,CLR,,0.00,WeatherDisplay:10.37,2013-10-18 02:58:00,
2013-10-17 23:03:00,77.6,69.8,29.86,ESE,103,1.2,1.2,77,0.00,CLR,,0.00,WeatherDisplay:10.37,2013-10-18 03:03:00,
2013-10-17 23:08:00,77.6,69.8,29.86,ESE,103,1.2,1.2,77,0.00,CLR,,0.00,WeatherDisplay:10.37,2013-10-18 03:08:00,
2013-10-17 23:13:00,77.6,69.8,29.86,ESE,104,3.5,3.5,77,0.00,CLR,,0.00,WeatherDisplay:10.37,2013-10-18 03:13:00,
2013-10-17 23:18:00,77.7,70.3,29.86,ESE,106,1.2,1.2,78,0.00,CLR,,0.00,WeatherDisplay:10.37,2013-10-18 03:18:00,
2013-10-17 23:23:00,77.7,70.3,29.86,ESE,106,2.3,2.3,78,0.00,CLR,,0.00,WeatherDisplay:10.37,2013-10-18 03:23:00,
2013-10-17 23:28:00,77.7,70.3,29.86,ESE,123,3.5,3.5,78,0.00,CLR,,0.00,WeatherDisplay:10.37,2013-10-18 03:28:00,
2013-10-17 23:33:00,77.8,70.4,29.86,ESE,123,3.5,3.5,78,0.00,CLR,,0.00,WeatherDisplay:10.37,2013-10-18 03:33:00,
2013-10-17 23:38:00,77.8,70.4,29.86,ESE,123,2.3,2.3,78,0.00,CLR,,0.00,WeatherDisplay:10.37,2013-10-18 03:38:00,
2013-10-17 23:43:00,77.8,70.4,29.86,ESE,123,2.3,0.0,78,0.00,CLR,,0.00,WeatherDisplay:10.37,2013-10-18 03:43:00,
2013-10-17 23:48:00,77.8,70.4,29.86,ESE,123,1.2,1.2,78,0.00,CLR,,0.00,WeatherDisplay:10.37,2013-10-18 03:48:00,
2013-10-17 23:53:00,77.8,70.8,29.86,ESE,121,2.3,2.3,79,0.00,CLR,,0.00,WeatherDisplay:10.37,2013-10-18 03:53:00,
2013-10-17 23:58:00,77.8,70.8,29.86,ESE,121,0.0,0.0,79,0.00,CLR,,0.00,WeatherDisplay:10.37,2013-10-18 03:58:00,